createdAt,value
2023-05-23T00:05:48.523Z,9.37
2023-05-23T00:15:52.618Z,9.31
2023-05-23T00:25:56.578Z,9.12
2023-05-23T00:36:00.897Z,8.82
2023-05-23T00:46:04.774Z,8.72
2023-05-23T00:56:08.130Z,8.45
2023-05-23T01:06:12.124Z,8.26
2023-05-23T01:16:29.426Z,8.09
2023-05-23T01:27:09.995Z,7.95
2023-05-23T01:37:15.186Z,7.92
2023-05-23T01:47:18.630Z,7.77
2023-05-23T01:57:22.982Z,7.60
2023-05-23T02:07:26.717Z,7.51
2023-05-23T02:17:30.978Z,7.32
2023-05-23T02:27:34.749Z,7.27
2023-05-23T02:37:37.990Z,7.16
2023-05-23T02:47:41.622Z,7.10
2023-05-23T02:57:45.567Z,6.99
2023-05-23T03:07:48.880Z,7.01
2023-05-23T03:17:52.740Z,7.12
2023-05-23T03:27:56.375Z,7.17
2023-05-23T03:37:59.543Z,7.21
2023-05-23T03:48:28.147Z,7.37
2023-05-23T03:58:57.112Z,7.65
2023-05-23T04:09:00.389Z,7.96
2023-05-23T04:19:29.258Z,8.42
2023-05-23T04:29:32.493Z,8.98
2023-05-23T04:39:36.224Z,9.52
2023-05-23T04:50:00.601Z,10.20
2023-05-23T05:00:10.443Z,10.89
2023-05-23T05:10:25.112Z,11.55
2023-05-23T05:20:28.383Z,12.54
2023-05-23T05:30:41.735Z,14.33
2023-05-23T05:40:45.684Z,15.92
2023-05-23T05:51:15.185Z,16.47
2023-05-23T06:01:45.108Z,16.50
2023-05-23T06:11:48.562Z,16.75
2023-05-23T06:21:51.934Z,17.92
2023-05-23T06:31:56.369Z,19.62
2023-05-23T06:42:01.657Z,21.18
2023-05-23T06:52:10.203Z,22.67
2023-05-23T07:02:13.679Z,24.25
2023-05-23T07:12:17.435Z,25.63
2023-05-23T07:22:47.435Z,26.53
2023-05-23T07:33:18.244Z,27.45
2023-05-23T07:43:21.730Z,28.09
2023-05-23T07:53:25.094Z,28.33
2023-05-23T08:03:32.572Z,28.26
2023-05-23T08:13:41.561Z,28.22
2023-05-23T08:24:12.716Z,27.57
2023-05-23T08:34:17.369Z,27.43
2023-05-23T08:44:21.469Z,27.22
2023-05-23T08:54:29.611Z,27.10
2023-05-23T09:04:33.187Z,26.21
2023-05-23T09:14:42.729Z,25.57
2023-05-23T09:24:47.963Z,25.33
2023-05-23T09:34:57.358Z,25.23
2023-05-23T09:45:03.781Z,25.17
2023-05-23T09:55:09.610Z,25.17
2023-05-23T10:05:23.546Z,25.06
2023-05-23T10:15:31.167Z,24.83
2023-05-23T10:25:37.333Z,24.95
2023-05-23T10:36:01.982Z,24.83
2023-05-23T10:46:05.194Z,24.76
2023-05-23T10:56:33.781Z,24.81
2023-05-23T11:07:02.959Z,24.86
2023-05-23T11:17:32.435Z,24.82
2023-05-23T11:28:04.149Z,24.71
2023-05-23T11:38:07.811Z,24.77
2023-05-23T11:48:13.083Z,24.80
2023-05-23T11:58:16.879Z,24.94
2023-05-23T12:08:20.085Z,24.92
2023-05-23T12:18:23.445Z,24.89
2023-05-23T12:28:45.485Z,24.84
2023-05-23T12:38:48.692Z,24.89
2023-05-23T12:48:53.081Z,24.79
2023-05-23T12:58:57.447Z,24.86
2023-05-23T13:09:00.483Z,24.56
2023-05-23T13:19:03.599Z,24.18
2023-05-23T13:29:06.832Z,23.85
2023-05-23T13:39:10.142Z,24.08
2023-05-23T13:49:13.543Z,24.17
2023-05-23T13:59:21.245Z,24.23
2023-05-23T14:09:25.285Z,24.22
2023-05-23T14:19:28.305Z,24.24
2023-05-23T14:29:32.003Z,24.17
2023-05-23T14:39:36.205Z,23.96
2023-05-23T14:49:39.395Z,23.88
2023-05-23T14:59:46.832Z,23.81
2023-05-23T15:09:50.231Z,23.61
2023-05-23T15:19:57.444Z,23.47
2023-05-23T15:30:01.270Z,23.36
2023-05-23T15:40:05.658Z,23.15
2023-05-23T15:50:33.947Z,22.95
2023-05-23T16:00:37.231Z,22.85
2023-05-23T16:10:40.473Z,22.87
2023-05-23T16:20:43.599Z,22.93
2023-05-23T16:30:46.963Z,22.79
2023-05-23T16:40:50.041Z,22.56
2023-05-23T16:50:57.732Z,22.19
2023-05-23T17:01:00.860Z,21.89
2023-05-23T17:11:04.083Z,21.58
2023-05-23T17:21:07.620Z,21.29
2023-05-23T17:31:10.989Z,20.98
2023-05-23T17:41:14.734Z,20.66
2023-05-23T17:51:17.804Z,20.29
2023-05-23T18:01:21.058Z,19.79
2023-05-23T18:11:24.468Z,19.58
2023-05-23T18:21:27.556Z,19.41
2023-05-23T18:31:30.740Z,19.15
2023-05-23T18:41:33.945Z,18.93
2023-05-23T18:51:38.430Z,18.71
2023-05-23T19:01:41.553Z,18.55
2023-05-23T19:11:44.961Z,18.32
2023-05-23T19:21:47.977Z,17.88
2023-05-23T19:31:51.066Z,17.53
2023-05-23T19:41:54.401Z,17.12
2023-05-23T19:51:57.695Z,16.83
2023-05-23T20:02:00.756Z,16.77
2023-05-23T20:12:04.233Z,16.69
2023-05-23T20:22:07.481Z,16.60
2023-05-23T20:32:10.795Z,16.27
2023-05-23T20:42:15.279Z,16.12
2023-05-23T20:52:18.305Z,16.24
2023-05-23T21:02:21.592Z,16.27
2023-05-23T21:12:24.928Z,16.06
2023-05-23T21:22:28.060Z,16.09
2023-05-23T21:32:31.829Z,15.98
2023-05-23T21:43:00.431Z,15.80
2023-05-23T21:53:03.578Z,15.79
2023-05-23T22:03:06.741Z,15.77
2023-05-23T22:13:10.173Z,15.73
2023-05-23T22:23:17.288Z,15.85
2023-05-23T22:33:21.006Z,15.77
2023-05-23T22:43:24.319Z,15.61
2023-05-23T22:53:27.559Z,15.60
2023-05-23T23:03:30.733Z,15.65
2023-05-23T23:14:00.190Z,15.64
2023-05-23T23:24:03.482Z,15.61
2023-05-23T23:34:06.963Z,15.70
2023-05-23T23:44:10.520Z,15.73
2023-05-23T23:54:13.908Z,15.67
